Portada
METAR-TAF:

METAR-TAF

Aeroports :

Agartala, Índia

latitud: 23-53-24N, longitud: 91-14-32E, altitud: 14 m

Observació

L'informe es va fer fa 23 minuts, a les 02:30 UTC
Vent calma
Temperatura 21°C
Humitat 83%
Pressió 1017 hPa
Visibilitat: 2500 m
boirina

METAR: VEAT 010230Z 00000KT 2500 BR NSC 21/18 Q1017 BECMG 3000 BR

Hora: 08:23 (02:53 UTC)

Pronòstic

L'informe es va fer fa 53 minuts, a les 02:00 UTC
Pronòstic vàlid del 01 a les 03 UTC al 01 a les 12 UTC
Vent kt del Nord
Visibilitat: 3000 m
boirina
Evolucionant progressivament
l' 01 a les 05 UTC al 01 a les 07 UTC
Visibilitat: 5000 m
calitja

TAF: VEAT 010200Z 0103/0112 00000KT 3000 BR NSC BECMG 0105/0107 5000 HZ

Observacions i pronòstics meteorològics de més de 4000 aeroports (METAR i TAF).

Les estacions disponibles són els punts grocs i vermells al mapa.

Posi el ratolí al punt desitjat per veure el nom de l'estació.

Feu clic per veure les observacions i els pronòstics meteorològics.

Per canviar el mapa: feu clic els botons verds amb una creu de color negre per apropar; al botó verd amb un guió per allunyar la imatge; o en les fletxes verdes per a mapes adjacents.


METAR-TAF: